sensor_id;sensor_type;location;lat;lon;timestamp;P1;durP1;ratioP1;P2;durP2;ratioP2
49378;SDS011;35254;47.990;-1.608;2023-02-10T00:02:24;10.38;;;5.57;;
49378;SDS011;35254;47.990;-1.608;2023-02-10T00:04:49;10.77;;;6.68;;
49378;SDS011;35254;47.990;-1.608;2023-02-10T00:07:18;7.10;;;5.13;;
49378;SDS011;35254;47.990;-1.608;2023-02-10T00:09:44;6.20;;;5.25;;
49378;SDS011;35254;47.990;-1.608;2023-02-10T00:12:09;6.82;;;5.30;;
49378;SDS011;35254;47.990;-1.608;2023-02-10T00:14:36;6.32;;;5.07;;
49378;SDS011;35254;47.990;-1.608;2023-02-10T00:17:02;7.68;;;5.53;;
49378;SDS011;35254;47.990;-1.608;2023-02-10T00:19:28;6.70;;;5.30;;
49378;SDS011;35254;47.990;-1.608;2023-02-10T00:21:56;6.65;;;5.47;;
49378;SDS011;35254;47.990;-1.608;2023-02-10T00:24:22;6.72;;;5.47;;
49378;SDS011;35254;47.990;-1.608;2023-02-10T00:26:48;5.90;;;5.07;;
49378;SDS011;35254;47.990;-1.608;2023-02-10T00:29:14;7.45;;;5.57;;
49378;SDS011;35254;47.990;-1.608;2023-02-10T00:31:40;5.78;;;5.00;;
49378;SDS011;35254;47.990;-1.608;2023-02-10T00:34:08;5.93;;;4.97;;
49378;SDS011;35254;47.990;-1.608;2023-02-10T00:36:37;5.65;;;5.07;;
49378;SDS011;35254;47.990;-1.608;2023-02-10T00:39:03;10.75;;;5.40;;
49378;SDS011;35254;47.990;-1.608;2023-02-10T00:41:29;5.75;;;5.05;;
49378;SDS011;35254;47.990;-1.608;2023-02-10T00:43:55;6.72;;;5.55;;
49378;SDS011;35254;47.990;-1.608;2023-02-10T00:46:21;7.03;;;4.85;;
49378;SDS011;35254;47.990;-1.608;2023-02-10T00:48:47;6.20;;;5.13;;
49378;SDS011;35254;47.990;-1.608;2023-02-10T00:51:14;6.50;;;5.47;;
49378;SDS011;35254;47.990;-1.608;2023-02-10T00:53:40;5.18;;;4.63;;
49378;SDS011;35254;47.990;-1.608;2023-02-10T00:56:07;7.10;;;5.72;;
49378;SDS011;35254;47.990;-1.608;2023-02-10T00:58:33;6.30;;;5.57;;
49378;SDS011;35254;47.990;-1.608;2023-02-10T01:00:58;7.30;;;5.50;;
49378;SDS011;35254;47.990;-1.608;2023-02-10T01:03:24;6.18;;;5.25;;
49378;SDS011;35254;47.990;-1.608;2023-02-10T01:05:50;7.65;;;5.45;;
49378;SDS011;35254;47.990;-1.608;2023-02-10T01:08:16;6.35;;;5.70;;
49378;SDS011;35254;47.990;-1.608;2023-02-10T01:10:42;7.10;;;5.10;;
49378;SDS011;35254;47.990;-1.608;2023-02-10T01:13:09;6.35;;;5.57;;
49378;SDS011;35254;47.990;-1.608;2023-02-10T01:15:40;5.80;;;4.88;;
49378;SDS011;35254;47.990;-1.608;2023-02-10T01:18:09;6.90;;;5.05;;
49378;SDS011;35254;47.990;-1.608;2023-02-10T01:20:37;7.10;;;5.03;;
49378;SDS011;35254;47.990;-1.608;2023-02-10T01:23:07;7.82;;;5.28;;
49378;SDS011;35254;47.990;-1.608;2023-02-10T01:25:33;6.20;;;5.60;;
49378;SDS011;35254;47.990;-1.608;2023-02-10T01:27:59;4.90;;;4.40;;
49378;SDS011;35254;47.990;-1.608;2023-02-10T01:30:25;7.10;;;5.25;;
49378;SDS011;35254;47.990;-1.608;2023-02-10T01:32:54;7.80;;;5.22;;
49378;SDS011;35254;47.990;-1.608;2023-02-10T01:35:20;7.25;;;4.90;;
49378;SDS011;35254;47.990;-1.608;2023-02-10T01:37:46;6.93;;;5.18;;
49378;SDS011;35254;47.990;-1.608;2023-02-10T01:40:12;7.18;;;5.40;;
49378;SDS011;35254;47.990;-1.608;2023-02-10T01:42:38;6.28;;;5.28;;
49378;SDS011;35254;47.990;-1.608;2023-02-10T01:45:17;9.85;;;5.38;;
49378;SDS011;35254;47.990;-1.608;2023-02-10T01:47:45;5.20;;;4.35;;
49378;SDS011;35254;47.990;-1.608;2023-02-10T01:50:13;6.45;;;5.20;;
49378;SDS011;35254;47.990;-1.608;2023-02-10T01:52:41;5.78;;;4.50;;
49378;SDS011;35254;47.990;-1.608;2023-02-10T01:55:12;10.13;;;5.40;;
49378;SDS011;35254;47.990;-1.608;2023-02-10T01:57:42;6.78;;;5.57;;
49378;SDS011;35254;47.990;-1.608;2023-02-10T02:00:10;6.65;;;4.90;;
49378;SDS011;35254;47.990;-1.608;2023-02-10T02:02:37;6.40;;;4.85;;
49378;SDS011;35254;47.990;-1.608;2023-02-10T02:05:05;5.20;;;4.60;;
49378;SDS011;35254;47.990;-1.608;2023-02-10T02:07:33;6.72;;;4.78;;
49378;SDS011;35254;47.990;-1.608;2023-02-10T02:10:02;8.57;;;5.18;;
49378;SDS011;35254;47.990;-1.608;2023-02-10T02:18:04;4.78;;;4.25;;
49378;SDS011;35254;47.990;-1.608;2023-02-10T02:23:48;7.35;;;4.57;;
49378;SDS011;35254;47.990;-1.608;2023-02-10T02:30:36;6.93;;;4.78;;
49378;SDS011;35254;47.990;-1.608;2023-02-10T02:35:31;5.75;;;5.07;;
49378;SDS011;35254;47.990;-1.608;2023-02-10T02:38:03;5.22;;;4.72;;
49378;SDS011;35254;47.990;-1.608;2023-02-10T02:40:30;8.73;;;4.93;;
49378;SDS011;35254;47.990;-1.608;2023-02-10T02:42:55;8.88;;;5.10;;
49378;SDS011;35254;47.990;-1.608;2023-02-10T02:45:24;10.35;;;6.65;;
49378;SDS011;35254;47.990;-1.608;2023-02-10T02:48:24;5.97;;;5.10;;
49378;SDS011;35254;47.990;-1.608;2023-02-10T02:53:40;6.57;;;4.80;;
49378;SDS011;35254;47.990;-1.608;2023-02-10T02:58:59;6.63;;;4.65;;
49378;SDS011;35254;47.990;-1.608;2023-02-10T03:01:44;5.53;;;4.45;;
49378;SDS011;35254;47.990;-1.608;2023-02-10T03:04:15;5.05;;;4.53;;
49378;SDS011;35254;47.990;-1.608;2023-02-10T03:06:41;7.95;;;4.50;;
49378;SDS011;35254;47.990;-1.608;2023-02-10T03:09:07;5.63;;;4.60;;
49378;SDS011;35254;47.990;-1.608;2023-02-10T03:11:33;5.70;;;4.63;;
49378;SDS011;35254;47.990;-1.608;2023-02-10T03:13:58;6.47;;;4.75;;
49378;SDS011;35254;47.990;-1.608;2023-02-10T03:16:24;7.65;;;5.38;;
49378;SDS011;35254;47.990;-1.608;2023-02-10T03:18:50;7.82;;;4.72;;
49378;SDS011;35254;47.990;-1.608;2023-02-10T03:21:15;6.20;;;5.57;;
49378;SDS011;35254;47.990;-1.608;2023-02-10T03:23:41;5.20;;;4.07;;
49378;SDS011;35254;47.990;-1.608;2023-02-10T03:26:07;6.00;;;5.07;;
49378;SDS011;35254;47.990;-1.608;2023-02-10T03:28:32;4.80;;;4.30;;
49378;SDS011;35254;47.990;-1.608;2023-02-10T03:31:01;4.88;;;4.45;;
49378;SDS011;35254;47.990;-1.608;2023-02-10T03:33:28;5.35;;;4.65;;
49378;SDS011;35254;47.990;-1.608;2023-02-10T03:35:53;6.47;;;5.13;;
49378;SDS011;35254;47.990;-1.608;2023-02-10T03:38:19;4.80;;;4.32;;
49378;SDS011;35254;47.990;-1.608;2023-02-10T03:40:48;5.28;;;4.40;;
49378;SDS011;35254;47.990;-1.608;2023-02-10T03:43:14;5.75;;;4.75;;
49378;SDS011;35254;47.990;-1.608;2023-02-10T03:45:40;4.70;;;4.18;;
49378;SDS011;35254;47.990;-1.608;2023-02-10T03:48:05;10.63;;;5.05;;
49378;SDS011;35254;47.990;-1.608;2023-02-10T03:50:31;5.72;;;5.03;;
49378;SDS011;35254;47.990;-1.608;2023-02-10T03:52:57;5.88;;;4.38;;
49378;SDS011;35254;47.990;-1.608;2023-02-10T03:55:22;6.95;;;5.05;;
49378;SDS011;35254;47.990;-1.608;2023-02-10T03:57:48;5.72;;;4.63;;
49378;SDS011;35254;47.990;-1.608;2023-02-10T04:00:14;6.82;;;5.05;;
49378;SDS011;35254;47.990;-1.608;2023-02-10T04:02:40;7.38;;;4.57;;
49378;SDS011;35254;47.990;-1.608;2023-02-10T04:05:06;5.22;;;4.72;;
49378;SDS011;35254;47.990;-1.608;2023-02-10T04:07:31;5.75;;;5.18;;
49378;SDS011;35254;47.990;-1.608;2023-02-10T04:09:57;5.60;;;4.45;;
49378;SDS011;35254;47.990;-1.608;2023-02-10T04:12:23;7.00;;;5.07;;
49378;SDS011;35254;47.990;-1.608;2023-02-10T04:14:48;6.32;;;5.65;;
49378;SDS011;35254;47.990;-1.608;2023-02-10T04:17:14;8.13;;;4.50;;
49378;SDS011;35254;47.990;-1.608;2023-02-10T04:19:39;6.00;;;5.00;;
49378;SDS011;35254;47.990;-1.608;2023-02-10T04:22:05;7.90;;;5.07;;
49378;SDS011;35254;47.990;-1.608;2023-02-10T04:24:31;6.55;;;5.63;;
49378;SDS011;35254;47.990;-1.608;2023-02-10T04:26:56;5.10;;;4.60;;
49378;SDS011;35254;47.990;-1.608;2023-02-10T04:29:22;5.07;;;4.57;;
49378;SDS011;35254;47.990;-1.608;2023-02-10T04:31:48;5.10;;;4.60;;
49378;SDS011;35254;47.990;-1.608;2023-02-10T04:34:14;5.88;;;4.65;;
49378;SDS011;35254;47.990;-1.608;2023-02-10T04:36:39;5.47;;;4.43;;
49378;SDS011;35254;47.990;-1.608;2023-02-10T04:39:05;6.50;;;4.20;;
49378;SDS011;35254;47.990;-1.608;2023-02-10T04:41:31;4.75;;;4.30;;
49378;SDS011;35254;47.990;-1.608;2023-02-10T04:43:56;6.07;;;4.70;;
49378;SDS011;35254;47.990;-1.608;2023-02-10T04:46:22;6.97;;;4.90;;
49378;SDS011;35254;47.990;-1.608;2023-02-10T04:48:48;5.78;;;5.00;;
49378;SDS011;35254;47.990;-1.608;2023-02-10T04:51:13;5.75;;;4.47;;
49378;SDS011;35254;47.990;-1.608;2023-02-10T04:53:39;7.65;;;4.13;;
49378;SDS011;35254;47.990;-1.608;2023-02-10T04:56:06;4.57;;;4.15;;
49378;SDS011;35254;47.990;-1.608;2023-02-10T04:58:32;5.43;;;4.93;;
49378;SDS011;35254;47.990;-1.608;2023-02-10T05:00:58;7.78;;;5.78;;
49378;SDS011;35254;47.990;-1.608;2023-02-10T05:03:24;4.72;;;4.18;;
49378;SDS011;35254;47.990;-1.608;2023-02-10T05:05:50;5.13;;;4.22;;
49378;SDS011;35254;47.990;-1.608;2023-02-10T05:08:19;5.38;;;4.75;;
49378;SDS011;35254;47.990;-1.608;2023-02-10T05:10:47;4.65;;;4.07;;
49378;SDS011;35254;47.990;-1.608;2023-02-10T05:13:14;6.15;;;5.00;;
49378;SDS011;35254;47.990;-1.608;2023-02-10T05:15:39;5.07;;;4.57;;
49378;SDS011;35254;47.990;-1.608;2023-02-10T05:18:05;5.32;;;4.28;;
49378;SDS011;35254;47.990;-1.608;2023-02-10T05:20:31;5.13;;;4.63;;
49378;SDS011;35254;47.990;-1.608;2023-02-10T05:22:56;7.32;;;4.97;;
49378;SDS011;35254;47.990;-1.608;2023-02-10T05:25:22;5.07;;;4.57;;
49378;SDS011;35254;47.990;-1.608;2023-02-10T05:27:47;6.57;;;5.07;;
49378;SDS011;35254;47.990;-1.608;2023-02-10T05:30:13;5.43;;;4.65;;
49378;SDS011;35254;47.990;-1.608;2023-02-10T05:32:39;8.20;;;4.70;;
49378;SDS011;35254;47.990;-1.608;2023-02-10T05:35:06;6.13;;;5.15;;
49378;SDS011;35254;47.990;-1.608;2023-02-10T05:37:32;4.53;;;4.13;;
49378;SDS011;35254;47.990;-1.608;2023-02-10T05:39:57;5.93;;;3.97;;
49378;SDS011;35254;47.990;-1.608;2023-02-10T05:42:23;5.28;;;4.75;;
49378;SDS011;35254;47.990;-1.608;2023-02-10T05:44:48;4.97;;;4.43;;
49378;SDS011;35254;47.990;-1.608;2023-02-10T05:47:14;5.15;;;4.45;;
49378;SDS011;35254;47.990;-1.608;2023-02-10T05:49:40;4.93;;;4.18;;
49378;SDS011;35254;47.990;-1.608;2023-02-10T05:52:05;5.85;;;4.68;;
49378;SDS011;35254;47.990;-1.608;2023-02-10T05:54:31;6.22;;;4.80;;
49378;SDS011;35254;47.990;-1.608;2023-02-10T05:56:56;5.15;;;4.57;;
49378;SDS011;35254;47.990;-1.608;2023-02-10T05:59:22;4.85;;;4.35;;
49378;SDS011;35254;47.990;-1.608;2023-02-10T06:01:48;5.00;;;4.43;;
49378;SDS011;35254;47.990;-1.608;2023-02-10T06:04:13;5.65;;;4.75;;
49378;SDS011;35254;47.990;-1.608;2023-02-10T06:06:39;4.75;;;4.35;;
49378;SDS011;35254;47.990;-1.608;2023-02-10T06:09:05;7.13;;;4.55;;
49378;SDS011;35254;47.990;-1.608;2023-02-10T06:11:31;5.90;;;4.50;;
49378;SDS011;35254;47.990;-1.608;2023-02-10T06:13:57;7.65;;;4.93;;
49378;SDS011;35254;47.990;-1.608;2023-02-10T06:16:23;6.38;;;4.32;;
49378;SDS011;35254;47.990;-1.608;2023-02-10T06:18:48;5.28;;;4.47;;
49378;SDS011;35254;47.990;-1.608;2023-02-10T06:21:14;5.05;;;4.28;;
49378;SDS011;35254;47.990;-1.608;2023-02-10T06:23:41;6.10;;;4.70;;
49378;SDS011;35254;47.990;-1.608;2023-02-10T06:26:07;5.25;;;4.18;;
49378;SDS011;35254;47.990;-1.608;2023-02-10T06:28:32;5.60;;;4.65;;
49378;SDS011;35254;47.990;-1.608;2023-02-10T06:30:58;5.63;;;5.13;;
49378;SDS011;35254;47.990;-1.608;2023-02-10T06:33:24;7.13;;;4.78;;
49378;SDS011;35254;47.990;-1.608;2023-02-10T06:35:50;5.25;;;4.28;;
49378;SDS011;35254;47.990;-1.608;2023-02-10T06:38:15;5.78;;;4.68;;
49378;SDS011;35254;47.990;-1.608;2023-02-10T06:40:41;8.65;;;4.75;;
49378;SDS011;35254;47.990;-1.608;2023-02-10T06:43:07;4.82;;;4.30;;
49378;SDS011;35254;47.990;-1.608;2023-02-10T06:45:32;4.85;;;4.35;;
49378;SDS011;35254;47.990;-1.608;2023-02-10T06:47:59;5.65;;;4.43;;
49378;SDS011;35254;47.990;-1.608;2023-02-10T06:50:25;7.10;;;5.38;;
49378;SDS011;35254;47.990;-1.608;2023-02-10T06:52:51;6.35;;;5.00;;
49378;SDS011;35254;47.990;-1.608;2023-02-10T06:55:17;6.20;;;4.80;;
49378;SDS011;35254;47.990;-1.608;2023-02-10T06:57:43;8.60;;;5.22;;
49378;SDS011;35254;47.990;-1.608;2023-02-10T07:00:09;6.00;;;4.38;;
49378;SDS011;35254;47.990;-1.608;2023-02-10T07:02:37;5.10;;;4.18;;
49378;SDS011;35254;47.990;-1.608;2023-02-10T07:05:04;7.03;;;4.85;;
49378;SDS011;35254;47.990;-1.608;2023-02-10T07:07:32;8.50;;;5.03;;
49378;SDS011;35254;47.990;-1.608;2023-02-10T07:09:58;6.65;;;4.78;;
49378;SDS011;35254;47.990;-1.608;2023-02-10T07:12:23;5.20;;;4.70;;
49378;SDS011;35254;47.990;-1.608;2023-02-10T07:14:52;7.50;;;5.35;;
49378;SDS011;35254;47.990;-1.608;2023-02-10T07:17:18;5.93;;;4.75;;
49378;SDS011;35254;47.990;-1.608;2023-02-10T07:19:44;6.18;;;5.20;;
49378;SDS011;35254;47.990;-1.608;2023-02-10T07:22:10;6.07;;;4.90;;
49378;SDS011;35254;47.990;-1.608;2023-02-10T07:24:36;6.22;;;4.82;;
49378;SDS011;35254;47.990;-1.608;2023-02-10T07:27:04;14.65;;;4.82;;
49378;SDS011;35254;47.990;-1.608;2023-02-10T07:29:30;4.55;;;4.15;;
49378;SDS011;35254;47.990;-1.608;2023-02-10T07:31:56;5.35;;;4.82;;
49378;SDS011;35254;47.990;-1.608;2023-02-10T07:34:23;7.03;;;4.57;;
49378;SDS011;35254;47.990;-1.608;2023-02-10T07:36:49;6.47;;;4.35;;
49378;SDS011;35254;47.990;-1.608;2023-02-10T07:39:19;6.93;;;4.28;;
49378;SDS011;35254;47.990;-1.608;2023-02-10T07:41:48;6.37;;;4.70;;
49378;SDS011;35254;47.990;-1.608;2023-02-10T07:44:15;5.32;;;4.80;;
49378;SDS011;35254;47.990;-1.608;2023-02-10T07:46:41;8.00;;;4.80;;
49378;SDS011;35254;47.990;-1.608;2023-02-10T07:49:07;4.97;;;4.47;;
49378;SDS011;35254;47.990;-1.608;2023-02-10T07:51:33;7.85;;;4.80;;
49378;SDS011;35254;47.990;-1.608;2023-02-10T07:53:59;7.47;;;4.80;;
49378;SDS011;35254;47.990;-1.608;2023-02-10T07:56:25;5.57;;;4.03;;
49378;SDS011;35254;47.990;-1.608;2023-02-10T07:58:50;6.82;;;5.00;;
49378;SDS011;35254;47.990;-1.608;2023-02-10T08:01:16;7.20;;;5.65;;
49378;SDS011;35254;47.990;-1.608;2023-02-10T08:03:42;7.07;;;4.82;;
49378;SDS011;35254;47.990;-1.608;2023-02-10T08:06:07;6.68;;;4.78;;
49378;SDS011;35254;47.990;-1.608;2023-02-10T08:08:33;5.75;;;4.68;;
49378;SDS011;35254;47.990;-1.608;2023-02-10T08:10:59;7.07;;;5.05;;
49378;SDS011;35254;47.990;-1.608;2023-02-10T08:13:24;6.90;;;5.75;;
49378;SDS011;35254;47.990;-1.608;2023-02-10T08:15:52;8.57;;;6.35;;
49378;SDS011;35254;47.990;-1.608;2023-02-10T08:18:18;13.23;;;6.88;;
49378;SDS011;35254;47.990;-1.608;2023-02-10T08:20:43;8.05;;;6.10;;
49378;SDS011;35254;47.990;-1.608;2023-02-10T08:23:16;9.93;;;6.50;;
49378;SDS011;35254;47.990;-1.608;2023-02-10T08:25:42;10.50;;;5.63;;
49378;SDS011;35254;47.990;-1.608;2023-02-10T08:28:08;10.00;;;5.68;;
49378;SDS011;35254;47.990;-1.608;2023-02-10T08:30:34;8.50;;;5.45;;
49378;SDS011;35254;47.990;-1.608;2023-02-10T08:33:00;7.68;;;6.50;;
49378;SDS011;35254;47.990;-1.608;2023-02-10T08:35:26;6.40;;;5.53;;
49378;SDS011;35254;47.990;-1.608;2023-02-10T08:37:51;7.80;;;5.53;;
49378;SDS011;35254;47.990;-1.608;2023-02-10T08:40:17;6.68;;;5.68;;
49378;SDS011;35254;47.990;-1.608;2023-02-10T08:42:43;8.23;;;5.80;;
49378;SDS011;35254;47.990;-1.608;2023-02-10T08:45:09;6.53;;;5.75;;
49378;SDS011;35254;47.990;-1.608;2023-02-10T08:47:35;8.15;;;5.90;;
49378;SDS011;35254;47.990;-1.608;2023-02-10T08:50:00;5.60;;;5.05;;
49378;SDS011;35254;47.990;-1.608;2023-02-10T08:52:26;6.88;;;5.47;;
49378;SDS011;35254;47.990;-1.608;2023-02-10T08:54:52;6.72;;;4.93;;
49378;SDS011;35254;47.990;-1.608;2023-02-10T08:57:18;6.18;;;5.38;;
49378;SDS011;35254;47.990;-1.608;2023-02-10T08:59:44;8.43;;;4.93;;
49378;SDS011;35254;47.990;-1.608;2023-02-10T09:02:10;5.13;;;4.63;;
49378;SDS011;35254;47.990;-1.608;2023-02-10T09:04:36;5.78;;;5.15;;
49378;SDS011;35254;47.990;-1.608;2023-02-10T09:07:02;6.22;;;5.45;;
49378;SDS011;35254;47.990;-1.608;2023-02-10T09:09:28;6.57;;;5.32;;
49378;SDS011;35254;47.990;-1.608;2023-02-10T09:11:54;7.63;;;5.32;;
49378;SDS011;35254;47.990;-1.608;2023-02-10T09:14:20;5.78;;;4.90;;
49378;SDS011;35254;47.990;-1.608;2023-02-10T09:16:47;5.63;;;4.85;;
49378;SDS011;35254;47.990;-1.608;2023-02-10T09:19:12;6.10;;;5.40;;
49378;SDS011;35254;47.990;-1.608;2023-02-10T09:21:38;7.43;;;5.40;;
49378;SDS011;35254;47.990;-1.608;2023-02-10T09:24:04;8.13;;;5.50;;
49378;SDS011;35254;47.990;-1.608;2023-02-10T09:26:30;8.70;;;5.53;;
49378;SDS011;35254;47.990;-1.608;2023-02-10T09:28:55;6.72;;;6.03;;
49378;SDS011;35254;47.990;-1.608;2023-02-10T09:31:22;6.18;;;5.00;;
49378;SDS011;35254;47.990;-1.608;2023-02-10T09:33:48;7.15;;;4.85;;
49378;SDS011;35254;47.990;-1.608;2023-02-10T09:36:15;6.22;;;5.20;;
49378;SDS011;35254;47.990;-1.608;2023-02-10T09:38:43;9.60;;;5.90;;
49378;SDS011;35254;47.990;-1.608;2023-02-10T09:41:14;6.93;;;5.75;;
49378;SDS011;35254;47.990;-1.608;2023-02-10T09:46:47;9.32;;;5.35;;
49378;SDS011;35254;47.990;-1.608;2023-02-10T09:55:11;9.48;;;5.57;;
49378;SDS011;35254;47.990;-1.608;2023-02-10T09:57:45;8.88;;;5.05;;
49378;SDS011;35254;47.990;-1.608;2023-02-10T10:00:29;6.97;;;5.32;;
49378;SDS011;35254;47.990;-1.608;2023-02-10T10:02:58;7.57;;;5.63;;
49378;SDS011;35254;47.990;-1.608;2023-02-10T10:08:18;7.82;;;5.22;;
49378;SDS011;35254;47.990;-1.608;2023-02-10T10:10:51;6.78;;;5.38;;
49378;SDS011;35254;47.990;-1.608;2023-02-10T10:13:23;8.25;;;5.13;;
49378;SDS011;35254;47.990;-1.608;2023-02-10T10:15:56;8.45;;;5.22;;
49378;SDS011;35254;47.990;-1.608;2023-02-10T10:21:24;5.47;;;4.75;;
49378;SDS011;35254;47.990;-1.608;2023-02-10T10:23:59;8.23;;;5.10;;
49378;SDS011;35254;47.990;-1.608;2023-02-10T10:32:32;6.07;;;4.55;;
49378;SDS011;35254;47.990;-1.608;2023-02-10T10:35:00;7.90;;;4.97;;
49378;SDS011;35254;47.990;-1.608;2023-02-10T10:37:27;5.55;;;4.20;;
49378;SDS011;35254;47.990;-1.608;2023-02-10T10:40:00;7.80;;;5.75;;
49378;SDS011;35254;47.990;-1.608;2023-02-10T10:47:49;8.82;;;5.53;;
49378;SDS011;35254;47.990;-1.608;2023-02-10T10:50:21;7.18;;;6.13;;
49378;SDS011;35254;47.990;-1.608;2023-02-10T10:52:52;8.32;;;4.93;;
49378;SDS011;35254;47.990;-1.608;2023-02-10T10:58:03;7.65;;;6.03;;
49378;SDS011;35254;47.990;-1.608;2023-02-10T11:00:52;5.65;;;4.82;;
49378;SDS011;35254;47.990;-1.608;2023-02-10T11:03:22;7.30;;;4.65;;
49378;SDS011;35254;47.990;-1.608;2023-02-10T11:06:22;6.93;;;4.55;;
49378;SDS011;35254;47.990;-1.608;2023-02-10T11:08:43;6.22;;;4.80;;
49378;SDS011;35254;47.990;-1.608;2023-02-10T11:11:30;5.90;;;4.70;;
49378;SDS011;35254;47.990;-1.608;2023-02-10T11:14:00;7.45;;;6.10;;
49378;SDS011;35254;47.990;-1.608;2023-02-10T11:16:26;7.78;;;4.97;;
49378;SDS011;35254;47.990;-1.608;2023-02-10T11:18:54;7.82;;;5.90;;
49378;SDS011;35254;47.990;-1.608;2023-02-10T11:21:31;5.97;;;4.60;;
49378;SDS011;35254;47.990;-1.608;2023-02-10T11:24:23;9.63;;;5.90;;
49378;SDS011;35254;47.990;-1.608;2023-02-10T11:27:01;7.07;;;5.55;;
49378;SDS011;35254;47.990;-1.608;2023-02-10T11:29:39;8.82;;;6.03;;
49378;SDS011;35254;47.990;-1.608;2023-02-10T11:32:20;15.48;;;6.65;;
49378;SDS011;35254;47.990;-1.608;2023-02-10T11:34:51;16.80;;;6.35;;
49378;SDS011;35254;47.990;-1.608;2023-02-10T11:37:26;11.30;;;5.88;;
49378;SDS011;35254;47.990;-1.608;2023-02-10T11:40:16;8.93;;;5.82;;
49378;SDS011;35254;47.990;-1.608;2023-02-10T11:42:46;7.47;;;5.95;;
49378;SDS011;35254;47.990;-1.608;2023-02-10T11:45:19;7.80;;;6.93;;
49378;SDS011;35254;47.990;-1.608;2023-02-10T11:47:47;9.10;;;5.80;;
49378;SDS011;35254;47.990;-1.608;2023-02-10T11:50:25;9.38;;;5.65;;
49378;SDS011;35254;47.990;-1.608;2023-02-10T11:52:54;6.60;;;5.15;;
49378;SDS011;35254;47.990;-1.608;2023-02-10T11:55:20;6.68;;;5.30;;
49378;SDS011;35254;47.990;-1.608;2023-02-10T12:01:10;5.50;;;4.60;;
49378;SDS011;35254;47.990;-1.608;2023-02-10T12:12:34;6.45;;;4.78;;
49378;SDS011;35254;47.990;-1.608;2023-02-10T12:15:16;5.00;;;4.15;;
49378;SDS011;35254;47.990;-1.608;2023-02-10T12:17:56;9.27;;;5.53;;
49378;SDS011;35254;47.990;-1.608;2023-02-10T12:34:22;5.10;;;4.38;;
49378;SDS011;35254;47.990;-1.608;2023-02-10T12:36:58;5.90;;;4.38;;
49378;SDS011;35254;47.990;-1.608;2023-02-10T12:42:40;4.70;;;3.70;;
49378;SDS011;35254;47.990;-1.608;2023-02-10T12:56:47;7.72;;;4.25;;
49378;SDS011;35254;47.990;-1.608;2023-02-10T12:59:21;6.53;;;4.18;;
49378;SDS011;35254;47.990;-1.608;2023-02-10T13:01:55;6.85;;;3.92;;
49378;SDS011;35254;47.990;-1.608;2023-02-10T13:06:59;5.20;;;3.63;;
49378;SDS011;35254;47.990;-1.608;2023-02-10T13:09:47;5.13;;;4.43;;
49378;SDS011;35254;47.990;-1.608;2023-02-10T13:12:27;5.90;;;4.03;;
49378;SDS011;35254;47.990;-1.608;2023-02-10T13:15:06;5.22;;;4.00;;
49378;SDS011;35254;47.990;-1.608;2023-02-10T13:17:47;10.57;;;3.75;;
49378;SDS011;35254;47.990;-1.608;2023-02-10T13:23:19;4.47;;;3.78;;
49378;SDS011;35254;47.990;-1.608;2023-02-10T13:26:01;8.27;;;4.25;;
49378;SDS011;35254;47.990;-1.608;2023-02-10T13:34:21;5.63;;;4.60;;
49378;SDS011;35254;47.990;-1.608;2023-02-10T13:37:15;6.93;;;4.20;;
49378;SDS011;35254;47.990;-1.608;2023-02-10T13:39:49;5.10;;;4.60;;
49378;SDS011;35254;47.990;-1.608;2023-02-10T13:47:31;8.40;;;4.30;;
49378;SDS011;35254;47.990;-1.608;2023-02-10T13:57:51;4.47;;;3.97;;
49378;SDS011;35254;47.990;-1.608;2023-02-10T14:00:18;7.78;;;4.38;;
49378;SDS011;35254;47.990;-1.608;2023-02-10T14:02:59;7.43;;;4.43;;
49378;SDS011;35254;47.990;-1.608;2023-02-10T14:05:35;7.68;;;3.95;;
49378;SDS011;35254;47.990;-1.608;2023-02-10T14:08:13;6.20;;;3.92;;
49378;SDS011;35254;47.990;-1.608;2023-02-10T14:10:56;5.38;;;3.80;;
49378;SDS011;35254;47.990;-1.608;2023-02-10T14:13:31;5.05;;;3.95;;
49378;SDS011;35254;47.990;-1.608;2023-02-10T14:18:32;5.00;;;3.65;;
49378;SDS011;35254;47.990;-1.608;2023-02-10T14:23:32;4.07;;;3.72;;
49378;SDS011;35254;47.990;-1.608;2023-02-10T14:26:01;5.55;;;4.32;;
49378;SDS011;35254;47.990;-1.608;2023-02-10T14:28:36;4.63;;;3.63;;
49378;SDS011;35254;47.990;-1.608;2023-02-10T14:31:27;5.30;;;3.55;;
49378;SDS011;35254;47.990;-1.608;2023-02-10T14:33:53;3.90;;;3.50;;
49378;SDS011;35254;47.990;-1.608;2023-02-10T14:36:20;5.22;;;3.92;;
49378;SDS011;35254;47.990;-1.608;2023-02-10T14:38:55;4.38;;;3.42;;
49378;SDS011;35254;47.990;-1.608;2023-02-10T14:41:26;5.80;;;3.60;;
49378;SDS011;35254;47.990;-1.608;2023-02-10T14:43:55;5.20;;;3.65;;
49378;SDS011;35254;47.990;-1.608;2023-02-10T14:46:25;4.15;;;3.50;;
49378;SDS011;35254;47.990;-1.608;2023-02-10T14:48:57;3.95;;;3.08;;
49378;SDS011;35254;47.990;-1.608;2023-02-10T14:51:29;4.55;;;3.22;;
49378;SDS011;35254;47.990;-1.608;2023-02-10T14:53:55;4.05;;;3.35;;
49378;SDS011;35254;47.990;-1.608;2023-02-10T14:56:31;5.18;;;3.70;;
49378;SDS011;35254;47.990;-1.608;2023-02-10T14:58:57;3.63;;;3.10;;
49378;SDS011;35254;47.990;-1.608;2023-02-10T15:01:29;4.95;;;3.38;;
49378;SDS011;35254;47.990;-1.608;2023-02-10T15:03:59;4.45;;;3.83;;
49378;SDS011;35254;47.990;-1.608;2023-02-10T15:06:28;7.13;;;3.67;;
49378;SDS011;35254;47.990;-1.608;2023-02-10T15:08:56;3.63;;;3.30;;
49378;SDS011;35254;47.990;-1.608;2023-02-10T15:11:26;5.30;;;3.42;;
49378;SDS011;35254;47.990;-1.608;2023-02-10T15:14:21;3.88;;;3.58;;
49378;SDS011;35254;47.990;-1.608;2023-02-10T15:16:53;4.82;;;3.53;;
49378;SDS011;35254;47.990;-1.608;2023-02-10T15:19:22;3.20;;;2.90;;
49378;SDS011;35254;47.990;-1.608;2023-02-10T15:21:47;2.92;;;2.60;;
49378;SDS011;35254;47.990;-1.608;2023-02-10T15:24:19;4.53;;;2.50;;
49378;SDS011;35254;47.990;-1.608;2023-02-10T15:27:06;3.28;;;2.97;;
49378;SDS011;35254;47.990;-1.608;2023-02-10T15:29:38;4.78;;;3.45;;
49378;SDS011;35254;47.990;-1.608;2023-02-10T15:32:04;3.30;;;3.00;;
49378;SDS011;35254;47.990;-1.608;2023-02-10T15:34:43;4.30;;;3.47;;
49378;SDS011;35254;47.990;-1.608;2023-02-10T15:37:17;3.63;;;2.83;;
49378;SDS011;35254;47.990;-1.608;2023-02-10T15:39:55;2.47;;;2.28;;
49378;SDS011;35254;47.990;-1.608;2023-02-10T15:42:26;2.75;;;2.33;;
49378;SDS011;35254;47.990;-1.608;2023-02-10T15:45:13;3.55;;;2.53;;
49378;SDS011;35254;47.990;-1.608;2023-02-10T15:47:41;3.58;;;2.60;;
49378;SDS011;35254;47.990;-1.608;2023-02-10T15:50:12;3.05;;;2.47;;
49378;SDS011;35254;47.990;-1.608;2023-02-10T15:52:48;3.45;;;2.47;;
49378;SDS011;35254;47.990;-1.608;2023-02-10T15:55:18;3.58;;;2.60;;
49378;SDS011;35254;47.990;-1.608;2023-02-10T15:58:05;3.30;;;2.58;;
49378;SDS011;35254;47.990;-1.608;2023-02-10T16:00:34;4.07;;;2.63;;
49378;SDS011;35254;47.990;-1.608;2023-02-10T16:03:01;3.13;;;2.70;;
49378;SDS011;35254;47.990;-1.608;2023-02-10T16:05:27;4.28;;;2.38;;
49378;SDS011;35254;47.990;-1.608;2023-02-10T16:07:53;3.03;;;2.40;;
49378;SDS011;35254;47.990;-1.608;2023-02-10T16:10:26;4.65;;;2.83;;
49378;SDS011;35254;47.990;-1.608;2023-02-10T16:12:52;2.65;;;2.33;;
49378;SDS011;35254;47.990;-1.608;2023-02-10T16:15:19;2.78;;;2.53;;
49378;SDS011;35254;47.990;-1.608;2023-02-10T16:17:47;4.93;;;2.40;;
49378;SDS011;35254;47.990;-1.608;2023-02-10T16:20:17;4.63;;;3.05;;
49378;SDS011;35254;47.990;-1.608;2023-02-10T16:22:47;6.00;;;2.28;;
49378;SDS011;35254;47.990;-1.608;2023-02-10T16:25:13;3.33;;;2.60;;
49378;SDS011;35254;47.990;-1.608;2023-02-10T16:27:41;5.78;;;2.53;;
49378;SDS011;35254;47.990;-1.608;2023-02-10T16:30:12;4.90;;;2.53;;
49378;SDS011;35254;47.990;-1.608;2023-02-10T16:32:40;2.28;;;2.08;;
49378;SDS011;35254;47.990;-1.608;2023-02-10T16:35:06;5.38;;;3.25;;
49378;SDS011;35254;47.990;-1.608;2023-02-10T16:37:31;4.05;;;2.88;;
49378;SDS011;35254;47.990;-1.608;2023-02-10T16:39:57;3.97;;;3.33;;
49378;SDS011;35254;47.990;-1.608;2023-02-10T16:42:23;2.80;;;2.30;;
49378;SDS011;35254;47.990;-1.608;2023-02-10T16:44:48;5.97;;;2.75;;